Time;durP1;ratioP1;P1;durP2;ratioP2;P2;SDS_P1;SDS_P2;PMS_P1;PMS_P2;Temp;Humidity;BMP_temperature;BMP_pressure;BME280_temperature;BME280_humidity;BME280_pressure;Samples;Min_cycle;Max_cycle;Signal;HPM_P1;HPM_P2
2022/07/09 00:01:46;;;;;;;8.05;1.38;;;;;;;;;;5070136;28;20319;-71
2022/07/09 00:04:12;;;;;;;7.25;1.60;;;;;;;;;;5072067;28;20492;-70
2022/07/09 00:06:38;;;;;;;7.43;1.33;;;;;;;;;;5070103;28;20119;-70
2022/07/09 00:09:04;;;;;;;11.32;1.90;;;;;;;;;;5078178;28;20027;-69
2022/07/09 00:11:30;;;;;;;5.85;1.40;;;;;;;;;;5076311;28;20031;-70
2022/07/09 00:13:57;;;;;;;6.22;1.50;;;;;;;;;;5074520;28;20289;-71
2022/07/09 00:16:23;;;;;;;6.00;1.40;;;;;;;;;;5095127;27;20035;-70
2022/07/09 00:18:49;;;;;;;7.95;1.42;;;;;;;;;;5071284;28;20182;-70
2022/07/09 00:21:15;;;;;;;7.28;1.67;;;;;;;;;;5074360;28;20092;-70
2022/07/09 00:23:41;;;;;;;7.43;1.75;;;;;;;;;;5070667;28;20050;-71
2022/07/09 00:26:07;;;;;;;8.73;1.75;;;;;;;;;;5072066;28;20027;-71
2022/07/09 00:28:33;;;;;;;6.15;1.42;;;;;;;;;;5069228;28;20586;-69
2022/07/09 00:31:00;;;;;;;7.85;1.60;;;;;;;;;;5076122;28;20034;-70
2022/07/09 00:33:26;;;;;;;6.32;1.70;;;;;;;;;;5094973;27;20032;-70
2022/07/09 00:35:52;;;;;;;6.60;1.63;;;;;;;;;;5069541;28;20124;-69
2022/07/09 00:38:21;;;;;;;7.22;1.80;;;;;;;;;;5075401;28;20032;-70
2022/07/09 00:40:47;;;;;;;9.50;1.70;;;;;;;;;;5067727;28;20020;-70
2022/07/09 00:43:20;;;;;;;19.10;3.58;;;;;;;;;;5072836;28;20489;-70
2022/07/09 00:45:46;;;;;;;9.80;2.50;;;;;;;;;;5069147;28;20039;-70
2022/07/09 00:48:13;;;;;;;12.70;2.42;;;;;;;;;;5075864;28;20066;-72
2022/07/09 00:50:43;;;;;;;10.93;2.60;;;;;;;;;;5075071;28;20050;-70
2022/07/09 00:53:20;;;;;;;9.07;2.40;;;;;;;;;;5097088;27;20323;-70
2022/07/09 00:55:46;;;;;;;9.50;1.60;;;;;;;;;;5075645;28;20053;-70
2022/07/09 00:58:13;;;;;;;8.90;1.58;;;;;;;;;;5077764;28;20291;-70
2022/07/09 01:00:41;;;;;;;14.35;2.15;;;;;;;;;;5076724;28;20126;-70
2022/07/09 01:03:07;;;;;;;5.78;1.67;;;;;;;;;;5097018;27;20395;-71
2022/07/09 01:05:36;;;;;;;7.65;1.58;;;;;;;;;;5074123;28;20036;-70
2022/07/09 01:08:06;;;;;;;8.15;1.65;;;;;;;;;;5075558;28;20144;-70
2022/07/09 01:10:33;;;;;;;7.03;1.52;;;;;;;;;;5072638;28;20058;-71
2022/07/09 01:12:59;;;;;;;8.07;1.70;;;;;;;;;;5078616;28;20028;-70
2022/07/09 01:15:25;;;;;;;7.63;1.60;;;;;;;;;;5074375;28;20149;-70
2022/07/09 01:17:52;;;;;;;7.78;1.60;;;;;;;;;;5075652;28;20067;-70
2022/07/09 01:20:23;;;;;;;9.65;1.77;;;;;;;;;;5098177;27;20163;-71
2022/07/09 01:22:49;;;;;;;5.60;1.40;;;;;;;;;;5074762;28;20296;-71
2022/07/09 01:25:18;;;;;;;5.60;1.27;;;;;;;;;;5079575;28;20435;-70
2022/07/09 01:27:44;;;;;;;6.93;1.40;;;;;;;;;;5072225;28;20392;-71
2022/07/09 01:30:11;;;;;;;9.23;1.50;;;;;;;;;;5092027;27;20043;-70
2022/07/09 01:32:38;;;;;;;6.40;1.60;;;;;;;;;;5075110;28;20020;-71
2022/07/09 01:35:04;;;;;;;7.18;1.52;;;;;;;;;;5100455;27;20054;-70
2022/07/09 01:37:33;;;;;;;6.78;1.40;;;;;;;;;;5079082;28;20491;-70
2022/07/09 01:39:59;;;;;;;6.45;1.40;;;;;;;;;;5075097;28;20365;-70
2022/07/09 01:42:25;;;;;;;4.82;1.40;;;;;;;;;;5074701;28;20570;-70
2022/07/09 01:44:52;;;;;;;7.80;1.85;;;;;;;;;;5069576;28;20023;-70
2022/07/09 01:47:18;;;;;;;7.85;1.60;;;;;;;;;;5077895;28;20482;-71
2022/07/09 01:49:44;;;;;;;7.93;1.48;;;;;;;;;;5072617;27;20052;-70
2022/07/09 01:52:10;;;;;;;9.00;1.75;;;;;;;;;;5096343;27;20038;-70
2022/07/09 01:54:36;;;;;;;8.23;1.55;;;;;;;;;;5073534;28;20122;-71
2022/07/09 01:57:03;;;;;;;6.30;1.55;;;;;;;;;;5074496;28;20062;-70
2022/07/09 01:59:29;;;;;;;7.28;1.67;;;;;;;;;;5073967;28;20101;-70
2022/07/09 02:01:55;;;;;;;10.75;1.80;;;;;;;;;;5074662;28;20049;-70
2022/07/09 02:04:21;;;;;;;11.38;1.80;;;;;;;;;;5078375;28;20884;-70
2022/07/09 02:06:47;;;;;;;6.80;1.60;;;;;;;;;;5072796;28;20030;-71
2022/07/09 02:09:14;;;;;;;5.97;1.58;;;;;;;;;;5072101;28;20644;-70
2022/07/09 02:11:40;;;;;;;6.15;1.50;;;;;;;;;;5071420;28;20043;-71
2022/07/09 02:14:06;;;;;;;6.40;1.42;;;;;;;;;;5080711;28;20020;-70
2022/07/09 02:16:32;;;;;;;7.15;1.70;;;;;;;;;;5076364;28;20032;-70
2022/07/09 02:18:58;;;;;;;6.53;1.60;;;;;;;;;;5080263;28;20581;-70
2022/07/09 02:21:24;;;;;;;8.70;2.00;;;;;;;;;;5073547;28;20031;-70
2022/07/09 02:23:52;;;;;;;5.68;1.45;;;;;;;;;;5071194;28;20195;-70
2022/07/09 02:26:18;;;;;;;7.30;1.55;;;;;;;;;;5074060;28;20487;-70
2022/07/09 02:28:45;;;;;;;6.95;1.50;;;;;;;;;;5087031;27;20443;-70
2022/07/09 02:31:12;;;;;;;7.68;1.60;;;;;;;;;;5075906;28;20747;-70
2022/07/09 02:33:38;;;;;;;5.40;1.48;;;;;;;;;;5068132;28;20330;-71
2022/07/09 02:36:04;;;;;;;7.43;1.58;;;;;;;;;;5076323;28;20031;-70
2022/07/09 02:38:30;;;;;;;8.07;1.90;;;;;;;;;;5075039;28;20038;-69
2022/07/09 02:40:56;;;;;;;7.72;1.70;;;;;;;;;;5072760;28;20071;-69
2022/07/09 02:43:22;;;;;;;7.43;1.70;;;;;;;;;;5074160;28;20023;-71
2022/07/09 02:45:51;;;;;;;7.63;1.60;;;;;;;;;;5070993;28;20180;-71
2022/07/09 02:48:17;;;;;;;5.95;1.60;;;;;;;;;;5071591;28;20059;-71
2022/07/09 02:50:43;;;;;;;5.60;1.42;;;;;;;;;;5087221;27;20355;-69
2022/07/09 02:53:09;;;;;;;7.78;1.70;;;;;;;;;;5074319;28;20261;-71
2022/07/09 02:55:35;;;;;;;8.85;1.92;;;;;;;;;;5071084;28;20392;-71
2022/07/09 02:58:01;;;;;;;7.85;1.88;;;;;;;;;;5076070;28;21917;-71
2022/07/09 03:00:28;;;;;;;7.10;1.73;;;;;;;;;;5073957;28;20578;-71
2022/07/09 03:02:54;;;;;;;9.82;1.75;;;;;;;;;;5071202;28;20035;-70
2022/07/09 03:05:20;;;;;;;7.72;1.55;;;;;;;;;;5074342;28;20039;-70
2022/07/09 03:07:46;;;;;;;7.22;1.60;;;;;;;;;;5071910;28;20027;-69
2022/07/09 03:10:12;;;;;;;7.32;1.80;;;;;;;;;;5070864;28;20028;-70
2022/07/09 03:12:40;;;;;;;8.95;1.77;;;;;;;;;;5067101;28;20020;-71
2022/07/09 03:15:06;;;;;;;9.02;1.67;;;;;;;;;;5071786;28;20020;-70
2022/07/09 03:17:35;;;;;;;9.30;1.73;;;;;;;;;;5071846;28;20031;-70
2022/07/09 03:20:02;;;;;;;7.68;1.50;;;;;;;;;;5072435;28;20247;-70
2022/07/09 03:22:28;;;;;;;8.07;1.70;;;;;;;;;;5075856;28;20132;-70
2022/07/09 03:24:54;;;;;;;6.07;1.75;;;;;;;;;;5071133;28;20170;-71
2022/07/09 03:27:20;;;;;;;6.15;1.30;;;;;;;;;;5072563;28;20031;-72
2022/07/09 03:29:47;;;;;;;6.88;1.50;;;;;;;;;;5089466;27;20446;-71
2022/07/09 03:32:13;;;;;;;8.13;1.70;;;;;;;;;;5069517;28;20058;-71
2022/07/09 03:34:39;;;;;;;7.97;1.70;;;;;;;;;;5070132;28;20093;-70
2022/07/09 03:37:05;;;;;;;8.23;1.40;;;;;;;;;;5072487;28;20036;-70
2022/07/09 03:39:32;;;;;;;7.32;1.80;;;;;;;;;;5072865;28;20036;-71
2022/07/09 03:42:01;;;;;;;7.90;1.50;;;;;;;;;;5072829;28;20032;-71
2022/07/09 03:44:28;;;;;;;6.30;1.42;;;;;;;;;;5072457;28;20261;-73
2022/07/09 03:46:54;;;;;;;8.85;1.50;;;;;;;;;;5074348;28;20111;-71
2022/07/09 03:49:20;;;;;;;7.53;1.60;;;;;;;;;;5070383;28;20680;-71
2022/07/09 03:51:46;;;;;;;7.05;1.80;;;;;;;;;;5073274;28;20490;-71
2022/07/09 03:54:12;;;;;;;11.82;1.52;;;;;;;;;;5070481;28;20141;-71
2022/07/09 03:56:38;;;;;;;6.22;1.55;;;;;;;;;;5070215;28;20647;-71
2022/07/09 03:59:05;;;;;;;6.93;1.48;;;;;;;;;;5070778;28;20079;-70
2022/07/09 04:01:35;;;;;;;9.57;1.55;;;;;;;;;;5074045;28;20031;-72
2022/07/09 04:04:01;;;;;;;9.43;1.40;;;;;;;;;;5072916;28;20032;-71
2022/07/09 04:06:27;;;;;;;5.25;1.25;;;;;;;;;;5071535;28;20038;-69
2022/07/09 04:08:53;;;;;;;6.25;1.40;;;;;;;;;;5070987;28;20457;-70
2022/07/09 04:11:20;;;;;;;6.72;1.45;;;;;;;;;;5070984;28;20027;-72
2022/07/09 04:13:47;;;;;;;5.75;1.48;;;;;;;;;;5073411;28;20034;-72
2022/07/09 04:16:13;;;;;;;7.15;1.23;;;;;;;;;;5074575;28;20020;-72
2022/07/09 04:18:42;;;;;;;7.15;1.40;;;;;;;;;;5071300;28;20503;-70
2022/07/09 04:21:09;;;;;;;8.05;1.40;;;;;;;;;;5076741;28;20020;-72
2022/07/09 04:23:35;;;;;;;6.05;1.42;;;;;;;;;;5074217;28;20104;-71
2022/07/09 04:26:01;;;;;;;5.88;1.40;;;;;;;;;;5076722;28;20073;-70
2022/07/09 04:28:27;;;;;;;7.82;1.83;;;;;;;;;;5077994;28;20067;-72
2022/07/09 04:30:53;;;;;;;13.38;1.70;;;;;;;;;;5069026;28;20035;-70
2022/07/09 04:33:22;;;;;;;9.35;1.58;;;;;;;;;;5074898;28;20055;-72
2022/07/09 04:35:48;;;;;;;15.88;2.47;;;;;;;;;;5092719;27;20039;-72
2022/07/09 04:38:15;;;;;;;20.88;3.08;;;;;;;;;;5068654;28;20032;-70
2022/07/09 04:40:41;;;;;;;13.35;2.20;;;;;;;;;;5071256;28;20526;-72
2022/07/09 04:43:07;;;;;;;8.65;1.80;;;;;;;;;;5095705;27;20438;-72
2022/07/09 04:45:34;;;;;;;9.18;2.17;;;;;;;;;;5074197;28;20026;-72
2022/07/09 04:48:01;;;;;;;11.77;2.05;;;;;;;;;;5080274;28;20263;-71
2022/07/09 04:50:27;;;;;;;14.77;2.42;;;;;;;;;;5076312;28;20648;-71
2022/07/09 04:52:53;;;;;;;12.18;2.45;;;;;;;;;;5070058;28;20106;-71
2022/07/09 04:55:21;;;;;;;10.85;2.80;;;;;;;;;;5073319;28;20054;-70
2022/07/09 04:57:47;;;;;;;9.35;2.05;;;;;;;;;;5068907;28;20479;-71
2022/07/09 05:00:15;;;;;;;10.55;2.03;;;;;;;;;;5068891;28;20387;-71
2022/07/09 05:02:42;;;;;;;7.75;1.98;;;;;;;;;;5068676;28;20030;-71
2022/07/09 05:05:08;;;;;;;9.32;2.10;;;;;;;;;;5094641;27;20035;-70
2022/07/09 05:07:35;;;;;;;7.82;2.00;;;;;;;;;;5066692;28;20108;-71
2022/07/09 05:10:01;;;;;;;8.65;2.00;;;;;;;;;;5069091;28;20047;-70
2022/07/09 05:12:31;;;;;;;8.65;2.00;;;;;;;;;;5073823;28;20593;-71
2022/07/09 05:14:57;;;;;;;7.70;1.95;;;;;;;;;;5069166;28;20682;-70
2022/07/09 05:17:23;;;;;;;6.20;1.50;;;;;;;;;;5072502;27;20102;-71
2022/07/09 05:19:50;;;;;;;8.57;1.63;;;;;;;;;;5069892;28;20391;-71
2022/07/09 05:22:16;;;;;;;11.07;1.90;;;;;;;;;;5075095;28;20524;-71
2022/07/09 05:24:43;;;;;;;7.28;1.67;;;;;;;;;;5068303;28;20361;-71
2022/07/09 05:27:09;;;;;;;9.40;1.45;;;;;;;;;;5071460;28;20028;-71
2022/07/09 05:29:36;;;;;;;8.25;1.60;;;;;;;;;;5067672;28;20043;-72
2022/07/09 05:32:03;;;;;;;7.85;1.40;;;;;;;;;;5070917;28;20028;-71
2022/07/09 05:34:29;;;;;;;7.63;1.67;;;;;;;;;;5070429;28;20448;-71
2022/07/09 05:36:56;;;;;;;7.72;1.95;;;;;;;;;;5069026;28;20649;-71
2022/07/09 05:39:22;;;;;;;5.97;1.75;;;;;;;;;;5071730;28;20044;-72
2022/07/09 05:41:48;;;;;;;13.75;3.00;;;;;;;;;;5070221;28;20377;-71
2022/07/09 05:44:15;;;;;;;13.75;2.58;;;;;;;;;;5072678;28;20035;-71
2022/07/09 05:46:41;;;;;;;9.32;2.00;;;;;;;;;;5068976;28;20305;-70
2022/07/09 05:49:07;;;;;;;7.55;1.40;;;;;;;;;;5075041;28;20147;-70
2022/07/09 05:51:34;;;;;;;6.90;1.45;;;;;;;;;;5072104;28;20027;-71
2022/07/09 05:54:00;;;;;;;5.57;1.23;;;;;;;;;;5070997;28;20123;-70
2022/07/09 05:56:26;;;;;;;8.50;1.45;;;;;;;;;;5075159;28;20445;-71
2022/07/09 05:58:52;;;;;;;8.15;1.48;;;;;;;;;;5068367;28;20510;-71
2022/07/09 06:01:19;;;;;;;6.30;1.33;;;;;;;;;;5075202;28;20556;-70
2022/07/09 06:03:46;;;;;;;6.97;1.40;;;;;;;;;;5068803;28;20034;-71
2022/07/09 06:06:13;;;;;;;9.90;1.75;;;;;;;;;;5069565;28;20035;-71
2022/07/09 06:08:39;;;;;;;7.63;1.50;;;;;;;;;;5066145;28;20127;-71
2022/07/09 06:11:06;;;;;;;6.18;1.50;;;;;;;;;;5075098;28;20187;-71
2022/07/09 06:13:32;;;;;;;5.97;1.20;;;;;;;;;;5073007;28;20123;-71
2022/07/09 06:15:59;;;;;;;7.22;1.60;;;;;;;;;;5070793;28;20388;-71
2022/07/09 06:18:25;;;;;;;5.50;1.38;;;;;;;;;;5076434;28;20039;-71
2022/07/09 06:20:51;;;;;;;8.57;1.50;;;;;;;;;;5070406;28;24045;-72
2022/07/09 06:23:18;;;;;;;5.38;1.35;;;;;;;;;;5091056;27;20549;-72
2022/07/09 06:25:44;;;;;;;5.82;1.42;;;;;;;;;;5073844;28;20024;-72
2022/07/09 06:28:10;;;;;;;8.48;1.50;;;;;;;;;;5068134;28;20122;-72
2022/07/09 06:30:36;;;;;;;14.45;2.47;;;;;;;;;;5066665;28;20024;-72
2022/07/09 06:33:03;;;;;;;9.35;1.63;;;;;;;;;;5073301;28;20032;-71
2022/07/09 06:35:30;;;;;;;11.45;2.03;;;;;;;;;;5070457;28;20955;-71
2022/07/09 06:37:58;;;;;;;8.88;1.70;;;;;;;;;;5071744;28;20027;-70
2022/07/09 06:40:24;;;;;;;7.50;1.55;;;;;;;;;;5067908;28;20074;-72
2022/07/09 06:42:50;;;;;;;8.38;1.65;;;;;;;;;;5064702;28;20038;-71
2022/07/09 06:45:16;;;;;;;11.48;1.92;;;;;;;;;;5071050;28;20753;-71
2022/07/09 06:47:42;;;;;;;8.35;1.67;;;;;;;;;;5064913;28;20051;-71
2022/07/09 06:50:09;;;;;;;10.52;1.65;;;;;;;;;;5069080;28;20555;-71
2022/07/09 06:52:35;;;;;;;7.35;1.80;;;;;;;;;;5063049;28;20405;-71
2022/07/09 06:55:01;;;;;;;8.20;1.65;;;;;;;;;;5069359;28;20381;-72
2022/07/09 06:57:28;;;;;;;7.47;1.63;;;;;;;;;;5068071;28;20080;-72
2022/07/09 06:59:54;;;;;;;8.30;1.52;;;;;;;;;;5087661;27;20074;-71
2022/07/09 07:02:21;;;;;;;9.82;1.60;;;;;;;;;;5073440;28;20333;-70
2022/07/09 07:04:47;;;;;;;7.78;1.65;;;;;;;;;;5069788;28;20062;-70
2022/07/09 07:07:13;;;;;;;7.45;1.40;;;;;;;;;;5075435;28;20036;-72
2022/07/09 07:09:39;;;;;;;5.50;1.40;;;;;;;;;;5072338;28;20023;-72
2022/07/09 07:12:06;;;;;;;5.97;1.60;;;;;;;;;;5072836;28;20570;-72
2022/07/09 07:14:32;;;;;;;6.63;1.38;;;;;;;;;;5069933;28;20123;-73
2022/07/09 07:16:58;;;;;;;6.10;1.60;;;;;;;;;;5069336;28;20059;-70
2022/07/09 07:19:24;;;;;;;9.63;1.88;;;;;;;;;;5095638;27;20104;-71
2022/07/09 07:21:50;;;;;;;7.53;1.80;;;;;;;;;;5073304;28;20683;-71
2022/07/09 07:24:17;;;;;;;8.23;2.55;;;;;;;;;;5070462;28;21041;-73
2022/07/09 07:26:43;;;;;;;7.10;1.85;;;;;;;;;;5071483;28;20072;-71
2022/07/09 07:29:09;;;;;;;8.35;1.73;;;;;;;;;;5076524;28;20039;-71
2022/07/09 07:31:36;;;;;;;8.18;1.52;;;;;;;;;;5070495;28;20032;-71
2022/07/09 07:34:02;;;;;;;5.93;1.55;;;;;;;;;;5077487;28;20032;-72
2022/07/09 07:36:28;;;;;;;5.30;1.48;;;;;;;;;;5076173;28;20466;-72
2022/07/09 07:38:55;;;;;;;6.20;1.30;;;;;;;;;;5085790;27;20532;-72
2022/07/09 07:41:26;;;;;;;3.97;1.10;;;;;;;;;;5071517;28;20475;-72
2022/07/09 07:43:53;;;;;;;17.48;1.50;;;;;;;;;;5071128;28;20356;-72
2022/07/09 07:46:19;;;;;;;5.18;1.30;;;;;;;;;;5072468;28;20552;-71
2022/07/09 07:48:45;;;;;;;5.57;1.27;;;;;;;;;;5065828;28;20058;-73
2022/07/09 07:51:11;;;;;;;9.02;1.30;;;;;;;;;;5071496;28;20046;-71
2022/07/09 07:53:37;;;;;;;7.07;1.60;;;;;;;;;;5065077;28;20465;-73
2022/07/09 07:56:07;;;;;;;8.43;1.30;;;;;;;;;;5073289;28;20065;-72
2022/07/09 07:58:36;;;;;;;4.88;1.38;;;;;;;;;;5070849;28;20105;-72
2022/07/09 08:01:02;;;;;;;6.50;1.20;;;;;;;;;;5072439;28;20105;-72
2022/07/09 08:03:28;;;;;;;7.10;1.48;;;;;;;;;;5071788;28;20113;-70
2022/07/09 08:05:55;;;;;;;5.32;1.20;;;;;;;;;;5068825;28;20028;-72
2022/07/09 08:08:21;;;;;;;10.35;1.45;;;;;;;;;;5093727;27;20795;-71
2022/07/09 08:10:48;;;;;;;7.18;1.40;;;;;;;;;;5070334;28;20039;-72
2022/07/09 08:13:15;;;;;;;11.13;1.30;;;;;;;;;;5071547;28;20027;-71
2022/07/09 08:15:41;;;;;;;7.75;1.50;;;;;;;;;;5067713;28;20039;-71
2022/07/09 08:18:11;;;;;;;7.97;1.63;;;;;;;;;;5072812;28;20508;-71
2022/07/09 08:20:38;;;;;;;6.22;1.38;;;;;;;;;;5069377;28;20073;-72
2022/07/09 08:23:05;;;;;;;6.40;1.70;;;;;;;;;;5072673;28;20329;-72
2022/07/09 08:25:31;;;;;;;7.85;1.63;;;;;;;;;;5072788;28;20314;-72
2022/07/09 08:27:57;;;;;;;4.20;1.27;;;;;;;;;;5074524;28;20027;-72
2022/07/09 08:30:23;;;;;;;6.65;1.40;;;;;;;;;;5067658;28;20063;-71
2022/07/09 08:32:49;;;;;;;4.45;1.20;;;;;;;;;;5067005;28;20023;-71
2022/07/09 08:35:15;;;;;;;5.78;1.30;;;;;;;;;;5066817;28;20636;-72
2022/07/09 08:37:42;;;;;;;6.60;1.33;;;;;;;;;;5061169;28;20040;-73
2022/07/09 08:40:08;;;;;;;9.77;1.35;;;;;;;;;;5070433;28;20063;-71
2022/07/09 08:42:35;;;;;;;7.13;1.20;;;;;;;;;;5065236;28;20057;-72
2022/07/09 08:45:02;;;;;;;8.00;1.13;;;;;;;;;;5069000;28;21145;-71
2022/07/09 08:47:32;;;;;;;6.82;1.15;;;;;;;;;;5069081;28;20023;-70
2022/07/09 08:49:59;;;;;;;7.20;1.10;;;;;;;;;;5074331;28;20791;-71
2022/07/09 08:52:28;;;;;;;8.13;1.17;;;;;;;;;;5072665;28;20031;-71
2022/07/09 08:54:55;;;;;;;11.60;2.25;;;;;;;;;;5067318;28;20077;-72
2022/07/09 08:57:21;;;;;;;14.23;4.53;;;;;;;;;;5072359;28;20085;-73
2022/07/09 08:59:47;;;;;;;12.52;2.65;;;;;;;;;;5071752;28;20073;-72
2022/07/09 09:02:13;;;;;;;8.60;2.47;;;;;;;;;;5074233;28;20104;-70
2022/07/09 09:04:40;;;;;;;11.23;2.72;;;;;;;;;;5068352;28;20144;-72
2022/07/09 09:07:17;;;;;;;7.13;1.60;;;;;;;;;;5091298;27;20047;-72
2022/07/09 09:09:43;;;;;;;7.45;1.92;;;;;;;;;;5067308;28;20028;-73
2022/07/09 09:12:13;;;;;;;8.75;2.42;;;;;;;;;;5093483;27;20028;-71
2022/07/09 09:14:51;;;;;;;6.40;1.95;;;;;;;;;;5070625;28;20031;-71
2022/07/09 09:17:17;;;;;;;6.38;1.40;;;;;;;;;;5067921;28;20035;-71
2022/07/09 09:19:43;;;;;;;5.75;1.70;;;;;;;;;;5066582;28;20057;-72
2022/07/09 09:22:14;;;;;;;7.57;1.30;;;;;;;;;;5069856;28;20134;-71
2022/07/09 09:24:42;;;;;;;4.53;1.20;;;;;;;;;;5068999;28;20358;-71
2022/07/09 09:27:08;;;;;;;5.88;1.45;;;;;;;;;;5069615;28;20087;-72
2022/07/09 09:29:39;;;;;;;4.38;1.30;;;;;;;;;;5060839;28;20131;-72
2022/07/09 09:32:12;;;;;;;8.63;1.38;;;;;;;;;;5062867;28;20031;-72
2022/07/09 09:34:41;;;;;;;5.82;1.35;;;;;;;;;;5065039;28;20444;-71
2022/07/09 09:37:08;;;;;;;4.75;1.23;;;;;;;;;;5067098;28;20534;-72
2022/07/09 09:39:35;;;;;;;4.35;1.40;;;;;;;;;;5064101;28;20456;-72
2022/07/09 09:42:03;;;;;;;5.78;1.58;;;;;;;;;;5072879;28;20055;-72
2022/07/09 09:44:43;;;;;;;7.53;1.75;;;;;;;;;;5071611;28;20023;-71
2022/07/09 09:47:10;;;;;;;5.35;1.20;;;;;;;;;;5044047;28;20400;-72
2022/07/09 09:49:38;;;;;;;4.70;1.35;;;;;;;;;;5073976;27;20671;-71
2022/07/09 09:52:05;;;;;;;7.00;2.03;;;;;;;;;;5082260;28;20409;-71
2022/07/09 09:54:36;;;;;;;12.90;4.93;;;;;;;;;;5078395;28;20341;-72
2022/07/09 09:57:06;;;;;;;10.55;3.10;;;;;;;;;;5078497;28;20032;-73
2022/07/09 09:59:34;;;;;;;9.60;2.40;;;;;;;;;;5074711;28;20370;-71
2022/07/09 10:02:02;;;;;;;9.57;2.08;;;;;;;;;;5079795;28;20100;-72
2022/07/09 10:04:29;;;;;;;7.28;1.90;;;;;;;;;;5081409;28;20421;-73
2022/07/09 10:06:55;;;;;;;4.97;1.30;;;;;;;;;;5075604;28;20032;-72
2022/07/09 10:09:22;;;;;;;8.30;1.45;;;;;;;;;;5077878;28;20108;-72
2022/07/09 10:11:49;;;;;;;6.70;1.80;;;;;;;;;;5069522;28;20023;-70
2022/07/09 10:14:16;;;;;;;5.63;1.30;;;;;;;;;;5067810;28;20032;-68
2022/07/09 10:16:42;;;;;;;4.97;1.38;;;;;;;;;;5077657;28;20031;-68
2022/07/09 10:19:08;;;;;;;6.93;1.52;;;;;;;;;;5076123;28;20063;-69
2022/07/09 10:21:41;;;;;;;8.68;2.25;;;;;;;;;;5079778;28;20032;-69
2022/07/09 10:24:11;;;;;;;10.82;2.65;;;;;;;;;;5057499;28;20164;-69
2022/07/09 10:26:42;;;;;;;8.77;2.92;;;;;;;;;;5053169;28;20114;-69
2022/07/09 10:29:21;;;;;;;8.43;2.95;;;;;;;;;;5053681;28;20750;-69
2022/07/09 10:31:48;;;;;;;9.95;3.65;;;;;;;;;;5061113;28;20065;-69
2022/07/09 10:34:37;;;;;;;19.52;11.85;;;;;;;;;;5060816;28;20040;-69
2022/07/09 10:37:05;;;;;;;23.25;13.27;;;;;;;;;;5055201;28;20051;-68
2022/07/09 10:39:31;;;;;;;25.88;19.42;;;;;;;;;;5057118;28;20259;-69
2022/07/09 10:42:01;;;;;;;20.48;14.27;;;;;;;;;;5054159;28;20024;-68
2022/07/09 10:44:28;;;;;;;22.00;15.32;;;;;;;;;;5053426;28;20030;-68
2022/07/09 10:46:58;;;;;;;17.73;11.45;;;;;;;;;;5053700;28;20404;-69
2022/07/09 10:49:26;;;;;;;15.32;8.95;;;;;;;;;;5031558;28;20891;-68
2022/07/09 10:51:56;;;;;;;50.42;44.35;;;;;;;;;;5040790;27;20135;-69
2022/07/09 10:54:22;;;;;;;38.70;32.95;;;;;;;;;;5027154;28;20040;-69
2022/07/09 10:56:51;;;;;;;39.42;31.73;;;;;;;;;;5021003;28;20136;-69
2022/07/09 10:59:18;;;;;;;28.00;20.00;;;;;;;;;;5041489;27;20031;-69
2022/07/09 11:01:44;;;;;;;18.33;9.68;;;;;;;;;;5040766;28;20101;-69
2022/07/09 11:04:13;;;;;;;22.58;14.07;;;;;;;;;;5041438;28;20034;-69
2022/07/09 11:06:46;;;;;;;25.05;17.88;;;;;;;;;;5036273;28;20361;-71
2022/07/09 11:09:13;;;;;;;21.83;9.95;;;;;;;;;;5044235;27;20057;-68
2022/07/09 11:11:42;;;;;;;15.40;8.82;;;;;;;;;;5059402;27;21291;-69
2022/07/09 11:14:09;;;;;;;14.75;7.72;;;;;;;;;;5065311;27;20047;-71
2022/07/09 11:16:36;;;;;;;21.98;15.80;;;;;;;;;;5047002;28;20119;-69
2022/07/09 11:19:15;;;;;;;15.43;8.70;;;;;;;;;;5043521;28;20162;-71
2022/07/09 11:21:41;;;;;;;11.45;5.85;;;;;;;;;;5038910;28;20459;-68
2022/07/09 11:24:18;;;;;;;12.73;5.45;;;;;;;;;;5062563;27;20019;-68
2022/07/09 11:26:45;;;;;;;11.18;6.18;;;;;;;;;;5066894;28;20101;-69
2022/07/09 11:29:11;;;;;;;18.63;10.20;;;;;;;;;;5072785;28;20266;-70
2022/07/09 11:31:37;;;;;;;12.10;5.90;;;;;;;;;;5073625;28;20028;-70
2022/07/09 11:34:13;;;;;;;10.98;5.25;;;;;;;;;;5077806;28;20067;-69
2022/07/09 11:36:45;;;;;;;10.70;5.07;;;;;;;;;;5074397;28;20482;-69
2022/07/09 11:39:33;;;;;;;9.15;3.55;;;;;;;;;;5072778;28;20074;-69
2022/07/09 11:42:00;;;;;;;10.32;3.13;;;;;;;;;;5077794;28;20379;-69
2022/07/09 11:44:33;;;;;;;9.55;2.80;;;;;;;;;;5072191;28;20055;-72
2022/07/09 11:47:15;;;;;;;6.75;2.30;;;;;;;;;;5103264;27;20124;-70
2022/07/09 11:49:46;;;;;;;6.90;2.30;;;;;;;;;;5073832;28;20139;-70
2022/07/09 11:52:18;;;;;;;7.85;2.15;;;;;;;;;;5076757;28;20197;-69
2022/07/09 11:55:07;;;;;;;8.10;2.00;;;;;;;;;;5072067;28;20024;-70
2022/07/09 11:57:34;;;;;;;7.97;2.15;;;;;;;;;;5071346;28;20433;-69
2022/07/09 12:00:01;;;;;;;6.95;2.47;;;;;;;;;;5073664;28;20478;-70
2022/07/09 12:02:31;;;;;;;6.55;2.42;;;;;;;;;;5081672;28;20900;-71
2022/07/09 12:04:58;;;;;;;5.68;1.40;;;;;;;;;;5076943;28;20442;-71
2022/07/09 12:07:24;;;;;;;8.57;1.85;;;;;;;;;;5079106;28;20028;-71
2022/07/09 12:10:01;;;;;;;7.38;2.47;;;;;;;;;;5075318;28;20063;-71
2022/07/09 12:12:27;;;;;;;12.25;2.92;;;;;;;;;;5063271;28;20070;-71
2022/07/09 12:14:54;;;;;;;8.70;2.50;;;;;;;;;;5078035;28;20050;-71
2022/07/09 12:17:24;;;;;;;6.80;2.00;;;;;;;;;;5098519;27;20035;-70
2022/07/09 12:19:50;;;;;;;7.10;2.22;;;;;;;;;;5072028;28;20036;-69
2022/07/09 12:22:16;;;;;;;6.75;1.95;;;;;;;;;;5080313;28;20123;-68
2022/07/09 12:24:43;;;;;;;5.22;1.65;;;;;;;;;;5073692;28;20018;-69
2022/07/09 12:27:09;;;;;;;7.03;1.58;;;;;;;;;;5079661;28;20585;-70
2022/07/09 12:29:36;;;;;;;8.45;1.52;;;;;;;;;;5071580;28;20675;-68
2022/07/09 12:32:03;;;;;;;6.90;1.65;;;;;;;;;;5078872;28;20034;-68
2022/07/09 12:34:29;;;;;;;7.75;1.67;;;;;;;;;;5079529;28;20036;-70
2022/07/09 12:36:55;;;;;;;5.38;1.20;;;;;;;;;;5077188;28;20112;-68
2022/07/09 12:39:21;;;;;;;6.72;1.30;;;;;;;;;;5076789;28;20042;-69
2022/07/09 12:41:47;;;;;;;4.13;1.15;;;;;;;;;;5074181;28;20025;-71
2022/07/09 12:44:14;;;;;;;4.53;1.33;;;;;;;;;;5084770;28;20031;-69
2022/07/09 12:46:42;;;;;;;5.65;1.20;;;;;;;;;;5081521;28;20023;-69
2022/07/09 12:49:15;;;;;;;5.35;1.20;;;;;;;;;;5042273;28;20055;-67
2022/07/09 12:51:41;;;;;;;5.10;1.30;;;;;;;;;;5033554;28;20604;-67
2022/07/09 12:54:07;;;;;;;5.38;1.23;;;;;;;;;;5027970;28;20050;-64
2022/07/09 12:56:34;;;;;;;5.25;1.42;;;;;;;;;;5030433;28;20117;-65
2022/07/09 12:59:00;;;;;;;7.65;1.20;;;;;;;;;;5033364;28;20024;-67
2022/07/09 13:01:27;;;;;;;6.20;1.23;;;;;;;;;;5035196;28;20109;-65
2022/07/09 13:03:53;;;;;;;5.30;1.40;;;;;;;;;;5030187;28;20929;-66
2022/07/09 13:06:31;;;;;;;6.82;1.50;;;;;;;;;;5027502;28;20535;-66
2022/07/09 13:08:58;;;;;;;6.68;1.50;;;;;;;;;;5028348;28;20607;-67
2022/07/09 13:11:24;;;;;;;5.13;1.30;;;;;;;;;;5026620;28;20055;-66
2022/07/09 13:13:51;;;;;;;4.72;1.20;;;;;;;;;;5042715;27;20485;-68
2022/07/09 13:16:27;;;;;;;5.80;1.27;;;;;;;;;;5032138;28;20114;-68
2022/07/09 13:18:54;;;;;;;4.13;1.15;;;;;;;;;;5029231;28;20450;-66
2022/07/09 13:21:21;;;;;;;5.05;1.20;;;;;;;;;;5036879;28;20439;-66
2022/07/09 13:23:48;;;;;;;7.32;1.75;;;;;;;;;;5032756;28;20066;-66
2022/07/09 13:26:14;;;;;;;5.38;1.50;;;;;;;;;;5049891;28;20543;-66
2022/07/09 13:28:40;;;;;;;7.90;1.80;;;;;;;;;;5074319;28;20483;-66
2022/07/09 13:31:06;;;;;;;3.33;1.10;;;;;;;;;;5082391;28;20031;-66
2022/07/09 13:33:33;;;;;;;4.72;1.30;;;;;;;;;;5077952;28;20038;-66
2022/07/09 13:36:00;;;;;;;5.53;1.30;;;;;;;;;;5080557;28;20032;-66
2022/07/09 13:38:27;;;;;;;5.75;1.20;;;;;;;;;;5081983;28;20027;-67
2022/07/09 13:40:53;;;;;;;8.68;1.80;;;;;;;;;;5074405;28;20042;-66
2022/07/09 13:43:19;;;;;;;5.30;1.40;;;;;;;;;;5077216;28;20459;-66
2022/07/09 13:45:45;;;;;;;5.10;1.20;;;;;;;;;;5074963;28;20032;-66
2022/07/09 13:48:11;;;;;;;7.13;1.67;;;;;;;;;;5076547;28;20281;-66
2022/07/09 13:50:38;;;;;;;6.10;1.42;;;;;;;;;;5074982;28;20450;-66
2022/07/09 13:53:04;;;;;;;5.30;1.25;;;;;;;;;;5096509;27;20131;-66
2022/07/09 13:55:30;;;;;;;8.65;1.50;;;;;;;;;;5072373;28;20126;-66
2022/07/09 13:58:00;;;;;;;6.05;1.63;;;;;;;;;;5073003;28;20024;-65
2022/07/09 14:00:26;;;;;;;4.68;1.15;;;;;;;;;;5072611;28;20036;-66
2022/07/09 14:02:52;;;;;;;3.65;1.10;;;;;;;;;;5075421;28;22002;-66
2022/07/09 14:05:19;;;;;;;6.43;1.23;;;;;;;;;;5075007;28;20527;-65
2022/07/09 14:07:45;;;;;;;4.85;1.20;;;;;;;;;;5071047;28;20032;-65
2022/07/09 14:10:12;;;;;;;4.03;1.00;;;;;;;;;;5074576;28;20414;-66
2022/07/09 14:12:38;;;;;;;4.95;1.20;;;;;;;;;;5071668;28;20050;-66
2022/07/09 14:15:04;;;;;;;2.55;0.88;;;;;;;;;;5077440;28;20352;-66
2022/07/09 14:17:30;;;;;;;3.55;1.20;;;;;;;;;;5080042;28;20052;-66
2022/07/09 14:19:58;;;;;;;4.72;1.27;;;;;;;;;;5071828;28;20031;-66
2022/07/09 14:22:25;;;;;;;5.97;1.10;;;;;;;;;;5070090;28;20444;-67
2022/07/09 14:24:51;;;;;;;4.70;1.02;;;;;;;;;;5069736;28;20954;-66
2022/07/09 14:27:17;;;;;;;5.43;1.00;;;;;;;;;;5076286;28;20054;-66
2022/07/09 14:29:43;;;;;;;5.55;1.05;;;;;;;;;;5067241;28;20044;-66
2022/07/09 14:32:10;;;;;;;4.05;1.05;;;;;;;;;;5070679;28;20039;-66
2022/07/09 14:34:36;;;;;;;4.88;1.00;;;;;;;;;;5057203;28;20292;-66
2022/07/09 14:37:02;;;;;;;3.13;1.00;;;;;;;;;;5065523;28;20047;-66
2022/07/09 14:39:29;;;;;;;4.70;1.20;;;;;;;;;;5069594;28;20075;-66
2022/07/09 14:41:55;;;;;;;4.40;1.20;;;;;;;;;;5068006;28;20020;-66